CheckWX is a tool to help pilots better visualize weather data.  It is not intended as a substitute for an official pre-flight weather briefing.

23:39:27 UTC

WIDD METAR
Hang Nadim International Airport
Batam Island, Indonesia
Current

39 mins ago

WIDD 222300Z 35003KT 9999 FEW014 26/25 Q1012 NOSIG
Observed
Jan-22 @ 23:00 UTC
Wind
  • 350° at 3 KTS
Visibility
10,000+ meters
Flight Rules
VFR
Cloud Levels
  • Few at 1,400' AGL
Temperature
26°C / 79°F
Dewpoint
25°C / 77°F
Humidity
94%
Altimeter
29.88" Hg
Pressure
1011.92 hPa
Previous

10 hours ago

WIDD 221400Z 02007KT 9999 FEW014 28/24 Q1014 NOSIG
Observed
Jan-22 @ 14:00 UTC
Wind
  • 020° at 7 KTS
Visibility
10,000+ meters
Flight Rules
VFR
Cloud Levels
  • Few at 1,400' AGL
Temperature
28°C / 82°F
Dewpoint
24°C / 75°F
Heat Index
32°C / 89°F
Humidity
79%
Altimeter
29.94" Hg
Pressure
1013.92 hPa
Previous

10 hours ago

WIDD 221330Z 02007KT 9999 FEW014 28/24 Q1014 NOSIG
Observed
Jan-22 @ 13:30 UTC
Wind
  • 020° at 7 KTS
Visibility
10,000+ meters
Flight Rules
VFR
Cloud Levels
  • Few at 1,400' AGL
Temperature
28°C / 82°F
Dewpoint
24°C / 75°F
Heat Index
32°C / 89°F
Humidity
79%
Altimeter
29.94" Hg
Pressure
1013.92 hPa